Wind Ridge, Pennsylvania
Current Conditions -  °F | °C
As of 3:55 AM on Sunday 26 Oct 2014 (Local Time) from KAFJ Reporting Station
Clear Clear  
Wind Chill: 39°   Ceiling: Unl
Heat Index: 43°   Visibility: 10mi
Dew Point: 30°   Wind: 7mph
Humidity: 61%   Direction: 250°WSW
Pressure: 29.84"   Gusts: NA
Location:  39.91°N, 80.43°W
Report Text: KAFJ 260755Z AUTO 25006KT 10SM CLR 06/M01 A2984 RMK AO1
Loading
Personal Weather Stations






























Interactive Weather Map
Tropical Storm Tracking
New forecast layout! Learn more

10-Day Weather Forecast

Advertisements
Track Severe Weather on mobile